Time;durP1;ratioP1;P1;durP2;ratioP2;P2;SDS_P1;SDS_P2;PMS_P1;PMS_P2;Temp;Humidity;BMP_temperature;BMP_pressure;BME280_temperature;BME280_humidity;BME280_pressure;Samples;Min_cycle;Max_cycle;Signal;HPM_P1;HPM_P2
2022/03/17 00:00:51;;;;;;;21.70;11.55;;;;;;;;;;5055701;28;20032;-82
2022/03/17 00:03:17;;;;;;;22.13;10.60;;;;;;;;;;5055274;28;20017;-82
2022/03/17 00:05:43;;;;;;;21.85;9.00;;;;;;;;;;5053053;28;20056;-82
2022/03/17 00:08:09;;;;;;;24.65;10.73;;;;;;;;;;5050541;28;20106;-81
2022/03/17 00:10:35;;;;;;;20.58;10.35;;;;;;;;;;5051690;28;20021;-82
2022/03/17 00:13:01;;;;;;;21.80;11.18;;;;;;;;;;5046209;28;20580;-82
2022/03/17 00:15:27;;;;;;;24.20;10.52;;;;;;;;;;5058466;28;20109;-82
2022/03/17 00:17:53;;;;;;;22.70;9.75;;;;;;;;;;5072087;28;20021;-82
2022/03/17 00:20:19;;;;;;;23.10;9.38;;;;;;;;;;5066750;28;20013;-82
2022/03/17 00:22:45;;;;;;;24.27;10.18;;;;;;;;;;5064440;28;20040;-82
2022/03/17 00:25:12;;;;;;;24.13;11.20;;;;;;;;;;5065717;28;20033;-81
2022/03/17 00:27:38;;;;;;;26.35;11.02;;;;;;;;;;5048940;28;20049;-81
2022/03/17 00:30:04;;;;;;;29.88;10.63;;;;;;;;;;5051496;28;20018;-81
2022/03/17 00:32:30;;;;;;;25.65;10.10;;;;;;;;;;5051810;28;20033;-80
2022/03/17 00:37:41;;;;;;;22.55;10.00;;;;;;;;;;5045786;28;20035;-83
2022/03/17 00:40:07;;;;;;;20.80;9.13;;;;;;;;;;5055336;28;20029;-83
2022/03/17 00:42:33;;;;;;;23.85;10.02;;;;;;;;;;5048907;28;20104;-82
2022/03/17 00:44:59;;;;;;;19.85;10.07;;;;;;;;;;5052534;28;20035;-82
2022/03/17 00:47:25;;;;;;;22.30;9.95;;;;;;;;;;5048037;28;20040;-83
2022/03/17 00:49:51;;;;;;;23.58;10.70;;;;;;;;;;5048533;28;20021;-82
2022/03/17 00:52:20;;;;;;;21.80;9.77;;;;;;;;;;5045588;28;20036;-81
2022/03/17 00:54:46;;;;;;;20.23;10.20;;;;;;;;;;5048570;28;20032;-81
2022/03/17 00:57:12;;;;;;;19.70;9.43;;;;;;;;;;5048271;28;20059;-82
2022/03/17 00:59:40;;;;;;;19.63;9.55;;;;;;;;;;5054852;28;20493;-82
2022/03/17 01:02:07;;;;;;;24.63;9.90;;;;;;;;;;5050922;28;20019;-82
2022/03/17 01:04:33;;;;;;;22.83;10.10;;;;;;;;;;5051496;28;20067;-82
2022/03/17 01:06:59;;;;;;;19.25;9.82;;;;;;;;;;5046846;28;20040;-82
2022/03/17 01:09:25;;;;;;;20.67;10.48;;;;;;;;;;5052090;28;20037;-82
2022/03/17 01:11:51;;;;;;;24.27;10.18;;;;;;;;;;5048560;28;20031;-82
2022/03/17 01:14:17;;;;;;;24.73;9.90;;;;;;;;;;5051347;28;20417;-81
2022/03/17 01:16:43;;;;;;;21.98;10.68;;;;;;;;;;5048100;28;20120;-81
2022/03/17 01:19:09;;;;;;;20.25;9.13;;;;;;;;;;5046465;28;20036;-82
2022/03/17 01:21:35;;;;;;;23.15;9.88;;;;;;;;;;5040267;28;20047;-83
2022/03/17 01:24:01;;;;;;;20.30;8.63;;;;;;;;;;5048777;28;22436;-82
2022/03/17 01:26:27;;;;;;;18.45;8.93;;;;;;;;;;5045420;28;20067;-83
2022/03/17 01:28:53;;;;;;;20.58;8.93;;;;;;;;;;5047801;28;20024;-82
2022/03/17 01:31:23;;;;;;;19.52;9.38;;;;;;;;;;5049261;28;20078;-82
2022/03/17 01:33:48;;;;;;;24.85;9.13;;;;;;;;;;5043810;28;20064;-82
2022/03/17 01:36:14;;;;;;;23.33;10.48;;;;;;;;;;5040106;28;20025;-81
2022/03/17 01:38:40;;;;;;;17.23;8.75;;;;;;;;;;5047832;28;20036;-82
2022/03/17 01:41:06;;;;;;;23.05;9.68;;;;;;;;;;5045235;28;20022;-82
2022/03/17 01:43:32;;;;;;;18.45;9.95;;;;;;;;;;5039332;28;20033;-82
2022/03/17 01:45:58;;;;;;;23.65;10.15;;;;;;;;;;5044798;28;20535;-82
2022/03/17 01:48:24;;;;;;;21.67;8.55;;;;;;;;;;5048245;28;20041;-81
2022/03/17 01:50:52;;;;;;;22.55;10.32;;;;;;;;;;5042783;28;20033;-83
2022/03/17 01:53:18;;;;;;;21.98;10.20;;;;;;;;;;5042948;28;20057;-82
2022/03/17 01:55:44;;;;;;;21.48;9.02;;;;;;;;;;5044346;28;20084;-82
2022/03/17 01:58:10;;;;;;;21.13;9.52;;;;;;;;;;5042463;28;20144;-82
2022/03/17 02:00:37;;;;;;;21.17;8.75;;;;;;;;;;5044448;28;20134;-82
2022/03/17 02:03:04;;;;;;;18.33;9.50;;;;;;;;;;5050811;28;20039;-83
2022/03/17 02:05:30;;;;;;;19.27;8.52;;;;;;;;;;5041743;28;20028;-82
2022/03/17 02:07:56;;;;;;;21.58;9.20;;;;;;;;;;5045467;28;20048;-82
2022/03/17 02:10:22;;;;;;;22.38;9.38;;;;;;;;;;5046311;28;20025;-83
2022/03/17 02:15:34;;;;;;;21.80;10.00;;;;;;;;;;5048553;28;20488;-82
2022/03/17 02:18:02;;;;;;;18.02;9.55;;;;;;;;;;5047534;28;20051;-83
2022/03/17 02:20:28;;;;;;;20.00;8.98;;;;;;;;;;5045265;28;20037;-82
2022/03/17 02:25:33;;;;;;;20.80;9.98;;;;;;;;;;5042948;28;20207;-81
2022/03/17 02:25:50;;;;;;;30.90;12.10;;;7.80;99.90;;;;;;5050588;28;20051;-82
2022/03/17 02:28:16;;;;;;;28.33;11.35;;;;;;;;;;5053634;28;20041;-82
2022/03/17 02:30:42;;;;;;;26.67;10.82;;;;;;;;;;5045411;28;20067;-81
2022/03/17 02:33:09;;;;;;;24.00;10.63;;;;;;;;;;5050405;28;20033;-83
2022/03/17 02:35:37;;;;;;;22.48;9.82;;;6.90;99.90;;;;;;5050676;28;20016;-82
2022/03/17 02:38:04;;;;;;;21.02;9.27;;;;;;;;;;5044370;28;20067;-83
2022/03/17 02:40:35;;;;;;;21.38;9.18;;;7.60;99.90;;;;;;5045004;28;20021;-81
2022/03/17 02:43:01;;;;;;;19.42;9.23;;;;;;;;;;5046092;28;20142;-82
2022/03/17 02:45:27;;;;;;;22.17;11.23;;;;;;;;;;5045911;28;20508;-82
2022/03/17 02:47:54;;;;;;;24.05;11.35;;;;;;;;;;5048726;28;20132;-82
2022/03/17 02:50:20;;;;;;;21.20;8.88;;;;;;;;;;5045528;28;20021;-82
2022/03/17 02:52:46;;;;;;;23.65;10.98;;;;;;;;;;5042927;28;20064;-83
2022/03/17 02:55:12;;;;;;;23.90;10.57;;;;;;;;;;5044644;28;20236;-82
2022/03/17 02:57:42;;;;;;;23.20;9.95;;;;;;;;;;5046982;28;20147;-82
2022/03/17 03:00:10;;;;;;;29.48;10.45;;;;;;;;;;5050426;28;20017;-83
2022/03/17 03:02:36;;;;;;;22.85;10.45;;;;;;;;;;5046423;28;20121;-83
2022/03/17 03:05:03;;;;;;;21.60;10.30;;;;;;;;;;5043380;28;20025;-83
2022/03/17 03:07:29;;;;;;;21.88;11.25;;;;;;;;;;5046945;28;20079;-84
2022/03/17 03:09:56;;;;;;;23.27;9.55;;;;;;;;;;5040426;28;20056;-83
2022/03/17 03:12:22;;;;;;;26.42;10.35;;;;;;;;;;5047914;28;20033;-83
2022/03/17 03:14:48;;;;;;;25.67;11.07;;;;;;;;;;5048503;28;20035;-83
2022/03/17 03:17:14;;;;;;;34.72;11.75;;;;;;;;;;5046898;28;20469;-83
2022/03/17 03:19:40;;;;;;;19.02;10.27;;;;;;;;;;5053692;28;20089;-82
2022/03/17 03:22:06;;;;;;;26.30;10.85;;;;;;;;;;5050726;28;20036;-84
2022/03/17 03:24:33;;;;;;;23.67;10.73;;;;;;;;;;5047203;28;20068;-84
2022/03/17 03:26:59;;;;;;;22.33;11.38;;;;;;;;;;5050553;28;20405;-84
2022/03/17 03:29:25;;;;;;;31.45;12.73;;;;;;;;;;5049816;28;20029;-84
2022/03/17 03:31:52;;;;;;;19.90;9.75;;;;;;;;;;5051911;28;20055;-82
2022/03/17 03:34:18;;;;;;;23.02;10.75;;;;;;;;;;5052905;28;20072;-83
2022/03/17 03:39:29;;;;;;;19.33;10.10;;;;;;;;;;5054892;28;20048;-83
2022/03/17 03:41:56;;;;;;;24.88;11.10;;;;;;;;;;5051902;28;20032;-85
2022/03/17 03:44:22;;;;;;;22.30;11.57;;;;;;;;;;5049442;28;20378;-83
2022/03/17 03:46:48;;;;;;;30.15;12.18;;;;;;;;;;5053159;28;20044;-83
2022/03/17 03:49:14;;;;;;;22.52;9.80;;;;;;;;;;5052526;28;20034;-83
2022/03/17 03:51:40;;;;;;;23.58;10.48;;;;;;;;;;5051446;28;20025;-84
2022/03/17 03:54:18;;;;;;;19.80;9.80;;;;;;;;;;5054550;28;20052;-82
2022/03/17 03:56:45;;;;;;;25.42;12.23;;;;;;;;;;5052206;28;20206;-84
2022/03/17 03:59:15;;;;;;;26.83;12.13;;;7.90;99.90;;;;;;5047056;28;20409;-82
2022/03/17 04:01:41;;;;;;;27.00;11.25;;;;;;;;;;5053453;28;20436;-82
2022/03/17 04:04:07;;;;;;;23.27;10.68;;;;;;;;;;5056953;28;20028;-83
2022/03/17 04:06:37;;;;;;;22.33;10.25;;;;;;;;;;5055671;28;20037;-84
2022/03/17 04:09:03;;;;;;;20.58;10.93;;;;;;;;;;5052589;28;20028;-82
2022/03/17 04:11:29;;;;;;;29.67;13.43;;;;;;;;;;5053612;28;20023;-82
2022/03/17 04:13:55;;;;;;;26.70;10.88;;;;;;;;;;5047891;28;20028;-81
2022/03/17 04:16:21;;;;;;;25.38;11.75;;;;;;;;;;5053004;28;20465;-82
2022/03/17 04:18:47;;;;;;;22.80;10.73;;;;;;;;;;5054843;28;20048;-82
2022/03/17 04:21:13;;;;;;;22.40;11.27;;;;;;;;;;5049803;28;20033;-84
2022/03/17 04:23:39;;;;;;;25.20;11.00;;;;;;;;;;5059470;28;20126;-82
2022/03/17 04:26:05;;;;;;;27.65;11.85;;;;;;;;;;5074856;28;20037;-83
2022/03/17 04:28:31;;;;;;;26.48;10.93;;;;;;;;;;5063557;28;20056;-83
2022/03/17 04:30:58;;;;;;;23.65;12.10;;;;;;;;;;5059113;28;20517;-83
2022/03/17 04:33:24;;;;;;;29.55;12.98;;;;;;;;;;5046166;28;20299;-83
2022/03/17 04:35:50;;;;;;;29.63;12.88;;;;;;;;;;5050448;28;20028;-82
2022/03/17 04:38:16;;;;;;;27.77;12.60;;;;;;;;;;5045595;28;20033;-82
2022/03/17 04:40:48;;;;;;;29.20;10.32;;;;;;;;;;5048094;28;20110;-82
2022/03/17 04:43:17;;;;;;;29.70;13.32;;;;;;;;;;5049684;28;20060;-83
2022/03/17 04:45:43;;;;;;;27.85;12.82;;;;;;;;;;5047645;28;20044;-83
2022/03/17 04:48:09;;;;;;;25.98;10.50;;;;;;;;;;5048986;28;20041;-81
2022/03/17 04:50:35;;;;;;;25.88;10.80;;;;;;;;;;5048082;28;20507;-83
2022/03/17 04:55:46;;;;;;;26.13;11.15;;;;;;;;;;5049756;28;20040;-82
2022/03/17 04:58:13;;;;;;;30.38;12.45;;;;;;;;;;5047307;28;20028;-83
2022/03/17 05:00:40;;;;;;;23.23;11.38;;;;;;;;;;5048636;28;20036;-82
2022/03/17 05:03:06;;;;;;;23.33;11.95;;;;;;;;;;5055263;28;20033;-82
2022/03/17 05:05:32;;;;;;;23.80;11.57;;;;;;;;;;5054493;28;20053;-82
2022/03/17 05:07:58;;;;;;;33.30;14.27;;;;;;;;;;5048836;28;20128;-82
2022/03/17 05:10:24;;;;;;;35.83;13.23;;;;;;;;;;5051259;28;20083;-82
2022/03/17 05:12:50;;;;;;;37.83;13.48;;;;;;;;;;5045475;28;20036;-82
2022/03/17 05:15:16;;;;;;;25.00;11.30;;;;;;;;;;5048796;28;20027;-81
2022/03/17 05:17:42;;;;;;;27.85;13.38;;;;;;;;;;5049363;28;20021;-84
2022/03/17 05:20:10;;;;;;;24.08;12.38;;;;;;;;;;5046102;28;20075;-82
2022/03/17 05:22:36;;;;;;;30.77;12.05;;;;;;;;;;5041599;28;20489;-82
2022/03/17 05:25:04;;;;;;;27.77;10.43;;;;;;;;;;5041996;28;20029;-83
2022/03/17 05:27:30;;;;;;;27.73;11.55;;;;;;;;;;5041239;28;20066;-82
2022/03/17 05:29:56;;;;;;;24.90;10.80;;;;;;;;;;5050966;28;20116;-82
2022/03/17 05:32:22;;;;;;;38.10;13.05;;;;;;;;;;5051389;28;20037;-83
2022/03/17 05:34:48;;;;;;;26.38;11.88;;;;;;;;;;5052208;28;20014;-83
2022/03/17 05:37:14;;;;;;;27.38;11.30;;;;;;;;;;5045592;28;20120;-82
2022/03/17 05:39:40;;;;;;;26.10;12.52;;;;;;;;;;5038922;28;20056;-81
2022/03/17 05:42:06;;;;;;;30.42;13.27;;;;;;;;;;5040428;28;20040;-89
2022/03/17 05:44:32;;;;;;;21.85;10.40;;;;;;;;;;5036496;28;20056;-83
2022/03/17 05:46:58;;;;;;;27.23;12.40;;;;;;;;;;5032905;28;20481;-84
2022/03/17 05:49:24;;;;;;;30.60;12.18;;;;;;;;;;5043996;28;20120;-81
2022/03/17 05:51:50;;;;;;;36.55;13.38;;;;;;;;;;5049124;28;20055;-81
2022/03/17 05:54:16;;;;;;;25.25;11.15;;;;;;;;;;5046309;28;20032;-82
2022/03/17 05:56:42;;;;;;;26.52;12.48;;;;;;;;;;5047675;28;20021;-82
2022/03/17 05:59:08;;;;;;;25.45;11.88;;;;;;;;;;5043202;28;20029;-81
2022/03/17 06:01:34;;;;;;;30.98;12.75;;;;;;;;;;5046381;28;20059;-83
2022/03/17 06:04:00;;;;;;;28.67;13.13;;;;;;;;;;5046841;28;20040;-81
2022/03/17 06:06:26;;;;;;;28.02;13.40;;;;;;;;;;5048471;28;20039;-81
2022/03/17 06:08:52;;;;;;;31.10;12.23;;;;;;;;;;5039271;28;20117;-82
2022/03/17 06:11:18;;;;;;;27.10;10.73;;;;;;;;;;5041619;28;20035;-81
2022/03/17 06:13:44;;;;;;;34.25;14.18;;;;;;;;;;5044916;28;20021;-83
2022/03/17 06:16:10;;;;;;;34.00;14.52;;;;;;;;;;5045212;28;20045;-85
2022/03/17 06:18:36;;;;;;;37.72;15.05;;;;;;;;;;5048516;28;20530;-85
2022/03/17 06:21:02;;;;;;;30.60;13.25;;;;;;;;;;5040488;28;20127;-85
2022/03/17 06:23:28;;;;;;;34.33;14.30;;;;;;;;;;5042875;28;20024;-84
2022/03/17 06:25:54;;;;;;;34.92;14.55;;;;;;;;;;5039619;28;20265;-83
2022/03/17 06:28:20;;;;;;;40.30;14.82;;;;;;;;;;5036755;28;20095;-85
2022/03/17 06:30:46;;;;;;;28.75;13.20;;;;;;;;;;5043881;28;20033;-85
2022/03/17 06:33:13;;;;;;;33.90;13.90;;;;;;;;;;5050968;28;20029;-85
2022/03/17 06:35:39;;;;;;;35.35;14.80;;;;;;;;;;5042459;28;20036;-87
2022/03/17 06:38:07;;;;;;;29.90;13.10;;;;;;;;;;5038236;28;20037;-84
2022/03/17 06:40:35;;;;;;;36.25;16.73;;;;;;;;;;5047321;28;20119;-81
2022/03/17 06:43:01;;;;;;;33.88;14.50;;;;;;;;;;5046260;28;20072;-85
2022/03/17 06:45:27;;;;;;;33.03;17.40;;;;;;;;;;5045703;28;20028;-86
2022/03/17 06:47:54;;;;;;;32.60;15.48;;;;;;;;;;5045609;28;20436;-86
2022/03/17 06:50:21;;;;;;;35.13;13.65;;;;;;;;;;5044044;28;20105;-86
2022/03/17 06:52:47;;;;;;;26.55;13.25;;;;;;;;;;5046708;28;20060;-84
2022/03/17 06:55:14;;;;;;;27.92;12.55;;;;;;;;;;5041315;28;20032;-86
2022/03/17 06:57:40;;;;;;;32.65;14.02;;;;;;;;;;5047656;28;20053;-84
2022/03/17 07:00:07;;;;;;;25.38;11.52;;;;;;;;;;5045985;28;20118;-83
2022/03/17 07:02:33;;;;;;;27.08;11.55;;;;;;;;;;5051170;28;20040;-86
2022/03/17 07:04:59;;;;;;;27.00;12.35;;;;;;;;;;5042943;28;20029;-83
2022/03/17 07:07:27;;;;;;;30.30;12.77;;;;;;;;;;5037977;28;20075;-83
2022/03/17 07:09:53;;;;;;;30.60;13.23;;;;;;;;;;5041901;28;20056;-86
2022/03/17 07:12:19;;;;;;;27.17;11.63;;;;;;;;;;5038769;28;20079;-86
2022/03/17 07:14:45;;;;;;;26.42;12.10;;;;;;;;;;5040062;28;20025;-86
2022/03/17 07:17:11;;;;;;;28.92;13.10;;;;;;;;;;5047015;28;20063;-85
2022/03/17 07:19:36;;;;;;;25.77;12.52;;;;;;;;;;5046221;28;20493;-83
2022/03/17 07:22:07;;;;;;;25.48;13.05;;;;;;;;;;5049522;28;20949;-84
2022/03/17 07:24:33;;;;;;;33.70;13.95;;;;;;;;;;5050642;28;20477;-85
2022/03/17 07:26:59;;;;;;;26.70;12.02;;;;;;;;;;5042605;28;20044;-86
2022/03/17 07:29:25;;;;;;;25.15;13.27;;;;;;;;;;5036415;28;20021;-83
2022/03/17 07:31:56;;;;;;;28.58;12.98;;;;;;;;;;5047581;28;20029;-83
2022/03/17 07:34:22;;;;;;;30.73;12.20;;;;;;;;;;5042567;28;20598;-84
2022/03/17 07:36:48;;;;;;;34.10;13.30;;;;;;;;;;5048665;28;20029;-84
2022/03/17 07:39:14;;;;;;;28.77;14.27;;;;;;;;;;5040572;28;20504;-85
2022/03/17 07:41:40;;;;;;;29.05;12.30;;;;;;;;;;5040937;28;20540;-82
2022/03/17 07:44:06;;;;;;;25.33;11.70;;;;;;;;;;5046496;28;20046;-82
2022/03/17 07:46:32;;;;;;;27.88;12.48;;;;;;;;;;5047943;28;20025;-81
2022/03/17 07:48:58;;;;;;;25.85;12.10;;;;;;;;;;5045862;28;20815;-82
2022/03/17 07:51:24;;;;;;;24.70;10.88;;;;;;;;;;5043509;28;20033;-83
2022/03/17 07:53:50;;;;;;;27.00;11.40;;;;;;;;;;5042524;28;20028;-83
2022/03/17 07:56:18;;;;;;;29.38;12.52;;;;;;;;;;5042283;28;20054;-85
2022/03/17 07:58:44;;;;;;;26.67;11.88;;;;;;;;;;5035758;28;20103;-83
2022/03/17 08:01:11;;;;;;;35.20;13.07;;;;;;;;;;5044296;28;20021;-86
2022/03/17 08:03:39;;;;;;;33.75;14.00;;;;;;;;;;5045250;28;20049;-86
2022/03/17 08:06:06;;;;;;;30.45;13.90;;;;;;;;;;5042946;28;20083;-86
2022/03/17 08:08:34;;;;;;;32.33;12.73;;;;;;;;;;5053028;28;20040;-84
2022/03/17 08:11:00;;;;;;;24.33;13.02;;;;;;;;;;5050590;28;20029;-83
2022/03/17 08:13:26;;;;;;;30.85;13.45;;;;;;;;;;5042615;28;20067;-83
2022/03/17 08:15:52;;;;;;;30.08;13.18;;;;;;;;;;5049522;28;20043;-87
2022/03/17 08:18:18;;;;;;;28.00;12.02;;;;;;;;;;5053753;28;20082;-86
2022/03/17 08:20:45;;;;;;;31.90;14.40;;;;;;;;;;5046962;28;20120;-83
2022/03/17 08:23:11;;;;;;;32.30;13.40;;;;;;;;;;5063777;28;20086;-82
2022/03/17 08:25:46;;;;;;;33.53;13.02;;;;;;;;;;5055762;28;20104;-82
2022/03/17 08:28:12;;;;;;;22.92;11.38;;;;;;;;;;5053368;28;20063;-82
2022/03/17 08:30:38;;;;;;;26.88;11.95;;;;;;;;;;5052206;28;20075;-83
2022/03/17 08:33:04;;;;;;;27.17;12.63;;;;;;;;;;5051993;28;20037;-85
2022/03/17 08:35:30;;;;;;;24.63;11.93;;;;;;;;;;5052577;28;20052;-85
2022/03/17 08:37:59;;;;;;;22.45;11.20;;;;;;;;;;5045496;28;20063;-85
2022/03/17 08:40:25;;;;;;;28.60;13.88;;;;;;;;;;5046893;28;20051;-87
2022/03/17 08:42:51;;;;;;;29.85;13.40;;;;;;;;;;5043900;28;20036;-85
2022/03/17 08:50:47;;;;;;;24.60;12.18;;;;;;;;;;5048519;28;20035;-86
2022/03/17 08:53:14;;;;;;;28.60;14.48;;;;;;;;;;5039126;28;20022;-86
2022/03/17 08:55:39;;;;;;;25.23;11.50;;;;;;;;;;5046649;28;20033;-86
2022/03/17 08:58:06;;;;;;;24.42;12.77;;;;;;;;;;5047855;28;20029;-87
2022/03/17 09:00:34;;;;;;;27.08;12.32;;;;;;;;;;5051836;28;20052;-86
2022/03/17 09:03:02;;;;;;;30.83;13.90;;;;;;;;;;5048259;28;20374;-84
2022/03/17 09:05:28;;;;;;;28.80;13.60;;;;;;;;;;5037949;28;20029;-87
2022/03/17 09:07:55;;;;;;;24.52;12.00;;;;;;;;;;5044107;28;20053;-86
2022/03/17 09:10:22;;;;;;;30.33;13.82;;;;;;;;;;5043070;28;20033;-87
2022/03/17 09:12:48;;;;;;;29.30;13.45;;;;;;;;;;5041743;28;20025;-83
2022/03/17 09:15:14;;;;;;;31.92;13.32;;;;;;;;;;5046612;28;20615;-85
2022/03/17 09:17:43;;;;;;;26.65;12.52;;;;;;;;;;5046641;28;20021;-86
2022/03/17 09:20:15;;;;;;;31.15;13.25;;;;;;;;;;5045758;28;20033;-87
2022/03/17 09:22:42;;;;;;;29.43;12.27;;;;;;;;;;5043089;28;20094;-86
2022/03/17 09:25:09;;;;;;;25.85;10.15;;;;;;;;;;5045547;28;20037;-85
2022/03/17 09:27:35;;;;;;;27.73;12.68;;;;;;;;;;5046857;28;20048;-85
2022/03/17 09:30:01;;;;;;;30.98;15.05;;;;;;;;;;5043853;28;20055;-85
2022/03/17 09:32:27;;;;;;;29.75;14.23;;;;;;;;;;5044306;28;20028;-84
2022/03/17 09:34:53;;;;;;;26.92;11.65;;;;;;;;;;5047548;28;20048;-85
2022/03/17 09:37:19;;;;;;;28.00;11.48;;;;;;;;;;5041293;28;20035;-85
2022/03/17 09:39:49;;;;;;;24.67;11.00;;;12.40;99.90;;;;;;5050841;28;20040;-83
2022/03/17 09:42:16;;;;;;;26.00;12.13;;;;;;;;;;5044071;28;20036;-85
2022/03/17 09:44:46;;;;;;;32.47;13.23;;;;;;;;;;5040299;28;20055;-85
2022/03/17 09:47:12;;;;;;;26.38;13.15;;;;;;;;;;5049322;28;20493;-84
2022/03/17 09:49:39;;;;;;;24.48;10.27;;;;;;;;;;5049103;28;20032;-84
2022/03/17 09:52:11;;;;;;;29.17;13.32;;;;;;;;;;5048532;28;20737;-83
2022/03/17 09:54:37;;;;;;;31.80;12.40;;;;;;;;;;5049372;28;20072;-85
2022/03/17 09:57:04;;;;;;;24.25;12.20;;;;;;;;;;5063633;28;20013;-86
2022/03/17 09:59:30;;;;;;;40.30;12.57;;;;;;;;;;5065616;28;20075;-90
2022/03/17 10:01:59;;;;;;;29.30;12.13;;;;;;;;;;5070007;28;20029;-88
2022/03/17 10:04:30;;;;;;;25.92;11.73;;;;;;;;;;5045413;28;20036;-84
2022/03/17 10:06:58;;;;;;;24.48;11.32;;;;;;;;;;5054055;28;20048;-83
2022/03/17 10:09:24;;;;;;;28.42;14.02;;;;;;;;;;5060757;28;20102;-82
2022/03/17 10:12:23;;;;;;;27.50;11.70;;;;;;;;;;5057590;28;20032;-83
2022/03/17 10:14:51;;;;;;;24.10;11.60;;;;;;;;;;5050771;28;20055;-83
2022/03/17 10:17:35;;;;;;;27.27;11.98;;;;;;;;;;5059779;28;20024;-82
2022/03/17 10:20:12;;;;;;;25.20;11.63;;;;;;;;;;5060450;28;20029;-82
2022/03/17 10:22:57;;;;;;;26.73;12.63;;;;;;;;;;5050534;28;20032;-83
2022/03/17 10:25:25;;;;;;;25.00;12.38;;;;;;;;;;5058884;28;20051;-83
2022/03/17 10:27:54;;;;;;;25.33;11.52;;;;;;;;;;5057042;28;20045;-82
2022/03/17 10:30:23;;;;;;;22.58;11.23;;;;;;;;;;5057443;28;20036;-82
2022/03/17 10:32:57;;;;;;;30.25;12.75;;;;;;;;;;5057352;28;20026;-82
2022/03/17 10:35:24;;;;;;;25.70;11.90;;;;;;;;;;5055413;28;20425;-83
2022/03/17 10:37:50;;;;;;;26.27;13.70;;;;;;;;;;5047890;28;20021;-82
2022/03/17 10:40:16;;;;;;;29.70;13.25;;;;;;;;;;5053965;28;20040;-83
2022/03/17 10:42:42;;;;;;;24.23;11.93;;;;;;;;;;5050229;28;20126;-83
2022/03/17 10:45:09;;;;;;;23.27;11.60;;;;;;;;;;5054716;28;20041;-82
2022/03/17 10:47:34;;;;;;;25.50;12.25;;;;;;;;;;5048210;28;20072;-83
2022/03/17 10:50:11;;;;;;;26.15;11.95;;;;;;;;;;5053702;28;20014;-85
2022/03/17 10:52:55;;;;;;;23.20;10.48;;;13.30;99.90;;;;;;5059909;28;20041;-84
2022/03/17 10:55:22;;;;;;;21.50;10.85;;;;;;;;;;5031908;28;20028;-84
2022/03/17 10:57:49;;;;;;;25.15;12.07;;;;;;;;;;5044991;28;20025;-83
2022/03/17 11:00:20;;;;;;;26.50;11.85;;;;;;;;;;5042063;28;20033;-85
2022/03/17 11:02:48;;;;;;;29.35;11.40;;;;;;;;;;5039409;28;20032;-87
2022/03/17 11:05:14;;;;;;;23.08;11.38;;;13.80;99.90;;;;;;5048610;28;20141;-85
2022/03/17 11:07:40;;;;;;;32.45;13.00;;;;;;;;;;5040629;28;20036;-87
2022/03/17 11:10:07;;;;;;;25.38;12.15;;;;;;;;;;5044703;28;20048;-86
2022/03/17 11:12:36;;;;;;;19.95;9.63;;;;;;;;;;5038583;28;20054;-84
2022/03/17 11:15:02;;;;;;;20.20;11.23;;;;;;;;;;5040615;28;20075;-84
2022/03/17 11:17:36;;;;;;;20.67;11.10;;;;;;;;;;5042130;28;20108;-83
2022/03/17 11:20:09;;;;;;;23.85;11.32;;;;;;;;;;5046517;28;20116;-83
2022/03/17 11:22:36;;;;;;;;;;;;;;;;;;5045735;28;20124;-86
2022/03/17 11:25:23;;;;;;;26.33;10.48;;;;;;;;;;5043499;28;19958;-84
2022/03/17 11:27:49;;;;;;;23.58;11.65;;;;;;;;;;5042163;28;20037;-87
2022/03/17 11:30:17;;;;;;;27.92;11.73;;;13.80;98.50;;;;;;5043579;28;20369;-82
2022/03/17 11:32:49;;;;;;;22.60;11.15;;;;;;;;;;5026918;28;20028;-84
2022/03/17 11:35:19;;;;;;;25.50;11.23;;;;;;;;;;5041062;28;20164;-88
2022/03/17 11:37:45;;;;;;;20.88;11.45;;;;;;;;;;5040525;28;20057;-85
2022/03/17 11:40:21;;;;;;;20.73;11.27;;;;;;;;;;5042486;28;20051;-86
2022/03/17 11:42:52;;;;;;;24.23;12.98;;;;;;;;;;5040000;28;20040;-85
2022/03/17 11:45:18;;;;;;;26.10;11.48;;;14.10;99.90;;;;;;5045313;28;20119;-84
2022/03/17 11:47:48;;;;;;;23.70;11.40;;;;;;;;;;5049652;28;20143;-85
2022/03/17 11:50:33;;;;;;;27.73;12.10;;;;;;;;;;5048157;28;20075;-85
2022/03/17 11:53:00;;;;;;;25.27;11.65;;;;;;;;;;5047224;28;20037;-83
2022/03/17 11:55:32;;;;;;;23.33;11.00;;;;;;;;;;5032137;28;20022;-82
2022/03/17 11:58:16;;;;;;;23.00;10.88;;;;;;;;;;5052234;28;20472;-83
2022/03/17 12:00:46;;;;;;;24.13;11.45;;;;;;;;;;5048551;28;20036;-84
2022/03/17 12:03:13;;;;;;;23.40;10.35;;;;;;;;;;5047249;28;20036;-83
2022/03/17 12:05:40;;;;;;;24.42;10.48;;;;;;;;;;5040301;28;20516;-87
2022/03/17 12:08:06;;;;;;;27.98;12.43;;;;;;;;;;5041032;28;20037;-81
2022/03/17 12:10:51;;;;;;;24.92;11.93;;;;;;;;;;5038833;28;20017;-84
2022/03/17 12:13:24;;;;;;;27.63;11.27;;;;;;;;;;5042965;28;20029;-83
2022/03/17 12:15:51;;;;;;;;;;;;;;;;;;5036662;28;20085;-86
2022/03/17 12:18:17;;;;;;;22.08;11.18;;;;;;;;;;5036993;28;21354;-78
2022/03/17 12:20:46;;;;;;;21.90;11.20;;;;;;;;;;5041255;28;20040;-80
2022/03/17 12:23:31;;;;;;;23.83;12.50;;;;;;;;;;5045411;28;20443;-83
2022/03/17 12:26:06;;;;;;;24.25;11.35;;;;;;;;;;5047542;28;20485;-85
2022/03/17 12:28:32;;;;;;;23.40;12.30;;;12.60;99.90;;;;;;5044492;28;20041;-83
2022/03/17 12:30:58;;;;;;;25.67;11.57;;;;;;;;;;5047994;28;20045;-84
2022/03/17 12:33:25;;;;;;;24.30;12.00;;;;;;;;;;5047950;28;20048;-84
2022/03/17 12:36:14;;;;;;;26.95;12.85;;;;;;;;;;5045163;28;20037;-83
2022/03/17 12:38:40;;;;;;;24.75;13.48;;;13.40;99.70;;;;;;5035561;28;20033;-84
2022/03/17 12:41:12;;;;;;;26.70;12.02;;;;;;;;;;5050828;28;20025;-85
2022/03/17 12:43:39;;;;;;;25.17;12.40;;;;;;;;;;5046321;28;21198;-84
2022/03/17 12:46:05;;;;;;;23.63;10.93;;;;;;;;;;5050633;28;20037;-84
2022/03/17 12:48:31;;;;;;;22.00;10.82;;;;;;;;;;5048232;28;20044;-85
2022/03/17 12:51:11;;;;;;;26.23;10.50;;;13.00;99.90;;;;;;5046890;28;20283;-85
2022/03/17 12:53:39;;;;;;;24.50;11.73;;;;;;;;;;5040789;28;20025;-85
2022/03/17 12:56:05;;;;;;;24.55;11.20;;;;;;;;;;5045921;28;20025;-85
2022/03/17 12:58:39;;;;;;;29.60;11.93;;;;;;;;;;5040938;28;20388;-89
2022/03/17 13:01:05;;;;;;;23.48;12.82;;;;;;;;;;5041326;28;20362;-85
2022/03/17 13:03:31;;;;;;;26.00;12.68;;;;;;;;;;5044565;28;20029;-88
2022/03/17 13:08:45;;;;;;;29.70;13.68;;;;;;;;;;5048171;28;20048;-84
2022/03/17 13:16:44;;;;;;;20.05;10.77;;;;;;;;;;5036561;28;20050;-86
2022/03/17 13:19:10;;;;;;;27.30;12.23;;;;;;;;;;5031181;28;20040;-84
2022/03/17 13:21:37;;;;;;;24.27;12.13;;;;;;;;;;5050886;28;20036;-84
2022/03/17 13:24:16;;;;;;;29.38;11.15;;;;;;;;;;5047250;28;20425;-85
2022/03/17 13:26:42;;;;;;;23.35;11.35;;;;;;;;;;5047088;28;20025;-86
2022/03/17 13:29:08;;;;;;;26.33;10.90;;;;;;;;;;5037608;28;20462;-85
2022/03/17 13:31:40;;;;;;;26.98;12.88;;;;;;;;;;5046314;28;20025;-84
2022/03/17 13:34:07;;;;;;;24.13;12.20;;;;;;;;;;5048459;28;20432;-85
2022/03/17 13:36:52;;;;;;;24.85;11.68;;;;;;;;;;5027753;28;20033;-85
2022/03/17 13:39:18;;;;;;;24.42;10.13;;;;;;;;;;5038238;28;20128;-87
2022/03/17 13:41:57;;;;;;;28.50;11.02;;;;;;;;;;5043110;28;20100;-84
2022/03/17 13:44:23;;;;;;;25.73;11.52;;;;;;;;;;5043245;28;20025;-85
2022/03/17 13:46:49;;;;;;;23.90;12.23;;;;;;;;;;5044385;28;20266;-84
2022/03/17 13:49:15;;;;;;;22.25;10.50;;;;;;;;;;5044014;28;20126;-83
2022/03/17 13:51:41;;;;;;;29.05;13.20;;;;;;;;;;5046319;28;20131;-84
2022/03/17 13:54:07;;;;;;;25.95;11.90;;;;;;;;;;5045300;28;20072;-83
2022/03/17 13:56:36;;;;;;;28.20;12.25;;;;;;;;;;5040371;28;20031;-88
2022/03/17 13:59:02;;;;;;;25.48;12.85;;;;;;;;;;5041908;28;20037;-87
2022/03/17 14:01:28;;;;;;;25.60;13.20;;;;;;;;;;5043523;28;20043;-84
2022/03/17 14:04:00;;;;;;;22.95;12.73;;;;;;;;;;5042780;28;20033;-85
2022/03/17 14:06:31;;;;;;;25.88;11.20;;;;;;;;;;5043801;28;20028;-84
2022/03/17 14:08:58;;;;;;;38.67;13.93;;;;;;;;;;5043903;28;20181;-83
2022/03/17 14:11:29;;;;;;;27.30;13.45;;;;;;;;;;5052479;28;20080;-82
2022/03/17 14:13:56;;;;;;;30.13;11.95;;;;;;;;;;5043371;28;20115;-86
2022/03/17 14:16:22;;;;;;;24.88;12.27;;;;;;;;;;5042390;28;20021;-86
2022/03/17 14:18:50;;;;;;;28.83;12.45;;;;;;;;;;5047201;28;20041;-83
2022/03/17 14:21:18;;;;;;;33.33;13.80;;;;;;;;;;5048655;28;20033;-83
2022/03/17 14:26:32;;;;;;;25.60;11.65;;;;;;;;;;5049456;28;20491;-85
2022/03/17 14:28:58;;;;;;;30.70;14.40;;;;;;;;;;5050577;28;20062;-85
2022/03/17 14:31:34;;;;;;;33.85;14.40;;;;;;;;;;5041698;28;20039;-84
2022/03/17 14:34:01;;;;;;;31.75;14.10;;;;;;;;;;5047675;28;20040;-84
2022/03/17 14:36:28;;;;;;;28.05;13.13;;;;;;;;;;5047706;28;20397;-84
2022/03/17 14:38:54;;;;;;;29.73;13.73;;;;;;;;;;5049620;28;20203;-85
2022/03/17 14:41:20;;;;;;;30.63;12.77;;;;;;;;;;5048744;28;20044;-83
2022/03/17 14:43:51;;;;;;;23.65;12.10;;;;;;;;;;5043364;28;20013;-87
2022/03/17 14:46:19;;;;;;;27.80;13.73;;;;;;;;;;5048139;28;20090;-87